createdAt,value
2023-01-18T00:02:47.291Z,16.00
2023-01-18T00:07:50.408Z,16.01
2023-01-18T00:12:52.558Z,16.09
2023-01-18T00:17:54.709Z,16.01
2023-01-18T00:22:57.253Z,16.13
2023-01-18T00:27:59.555Z,16.19
2023-01-18T00:33:01.908Z,16.04
2023-01-18T00:38:04.056Z,15.61
2023-01-18T00:43:24.678Z,15.60
2023-01-18T00:48:26.867Z,15.52
2023-01-18T00:53:30.194Z,16.01
2023-01-18T00:58:32.283Z,15.95
2023-01-18T01:03:55.120Z,15.92
2023-01-18T01:08:57.315Z,16.08
2023-01-18T01:14:18.238Z,15.96
2023-01-18T01:19:38.781Z,15.95
2023-01-18T01:24:59.415Z,16.01
2023-01-18T01:30:04.417Z,15.99
2023-01-18T01:35:06.804Z,15.92
2023-01-18T01:40:09.768Z,15.64
2023-01-18T01:45:11.989Z,15.78
2023-01-18T01:50:36.125Z,16.00
2023-01-18T01:55:40.020Z,15.74
2023-01-18T02:00:42.633Z,16.03
2023-01-18T02:05:49.013Z,15.94
2023-01-18T02:10:53.083Z,15.66
2023-01-18T02:16:10.194Z,15.49
2023-01-18T02:21:26.729Z,15.34
2023-01-18T02:26:59.743Z,15.17
2023-01-18T02:32:20.702Z,15.09
2023-01-18T02:37:40.904Z,15.11
2023-01-18T02:43:02.484Z,15.00
2023-01-18T02:48:05.697Z,14.86
2023-01-18T02:53:10.855Z,14.83
2023-01-18T02:58:37.057Z,15.09
2023-01-18T03:03:44.620Z,15.06
2023-01-18T03:08:49.189Z,15.24
2023-01-18T03:14:08.285Z,15.50
2023-01-18T03:19:37.542Z,15.46
2023-01-18T03:24:41.677Z,15.33
2023-01-18T03:30:05.441Z,15.36
2023-01-18T03:35:15.486Z,15.44
2023-01-18T03:40:22.481Z,15.59
2023-01-18T03:45:40.275Z,15.49
2023-01-18T03:50:53.294Z,15.57
2023-01-18T03:56:19.400Z,15.47
2023-01-18T04:01:22.038Z,15.32
2023-01-18T04:06:26.091Z,15.33
2023-01-18T04:11:28.203Z,15.32
2023-01-18T04:16:30.409Z,15.54
2023-01-18T04:21:32.461Z,15.48
2023-01-18T04:26:34.638Z,15.28
2023-01-18T04:31:36.873Z,15.35
2023-01-18T04:36:39.175Z,15.36
2023-01-18T04:41:41.489Z,15.27
2023-01-18T04:46:44.205Z,15.26
2023-01-18T04:51:47.643Z,15.05
2023-01-18T04:56:49.768Z,14.99
2023-01-18T05:01:51.951Z,14.84
2023-01-18T05:06:54.147Z,14.58
2023-01-18T05:11:56.290Z,14.59
2023-01-18T05:16:58.436Z,14.63
2023-01-18T05:22:00.572Z,14.71
2023-01-18T05:27:02.664Z,14.75
2023-01-18T05:32:06.698Z,15.26
2023-01-18T05:37:08.832Z,14.89
2023-01-18T05:42:10.938Z,14.99
2023-01-18T05:47:13.059Z,15.22
2023-01-18T05:52:15.549Z,15.24
2023-01-18T05:57:17.825Z,15.11
2023-01-18T06:02:19.948Z,15.26
2023-01-18T06:07:22.059Z,14.90
2023-01-18T06:12:24.243Z,14.39
2023-01-18T06:17:26.603Z,14.23
2023-01-18T06:22:28.807Z,14.43
2023-01-18T06:27:31.002Z,14.70
2023-01-18T06:32:33.817Z,14.62
2023-01-18T06:37:35.976Z,14.46
2023-01-18T06:42:38.355Z,14.77
2023-01-18T06:47:40.399Z,14.87
2023-01-18T06:52:44.067Z,14.98
2023-01-18T06:57:48.108Z,14.91
2023-01-18T07:02:53.097Z,15.18
2023-01-18T07:07:55.272Z,15.50
2023-01-18T07:12:57.684Z,15.62
2023-01-18T07:17:59.926Z,15.71
2023-01-18T07:23:03.022Z,15.53
2023-01-18T07:28:05.330Z,16.06
2023-01-18T07:33:08.401Z,16.46
2023-01-18T07:38:10.485Z,16.53
2023-01-18T07:43:13.103Z,16.58
2023-01-18T07:48:15.153Z,16.69
2023-01-18T07:53:17.344Z,17.05
2023-01-18T07:58:20.464Z,17.16
2023-01-18T08:03:22.880Z,17.64
2023-01-18T08:08:25.298Z,17.88
2023-01-18T08:13:28.263Z,17.84
2023-01-18T08:18:30.851Z,17.94
2023-01-18T08:23:33.027Z,18.02
2023-01-18T08:28:35.759Z,18.09
2023-01-18T08:33:39.544Z,17.96
2023-01-18T08:38:41.886Z,17.88
2023-01-18T08:43:44.084Z,18.23
2023-01-18T08:48:50.171Z,18.36
2023-01-18T08:53:54.783Z,18.42
2023-01-18T08:58:57.979Z,18.16
2023-01-18T09:04:00.106Z,18.35
2023-01-18T09:09:02.461Z,18.22
2023-01-18T09:14:04.624Z,18.38
2023-01-18T09:19:07.016Z,18.62
2023-01-18T09:24:09.124Z,18.73
2023-01-18T09:29:11.158Z,18.86
2023-01-18T09:34:19.342Z,18.55
2023-01-18T09:39:23.163Z,18.71
2023-01-18T09:44:59.023Z,18.51
2023-01-18T09:50:11.166Z,18.52
2023-01-18T09:55:24.947Z,18.25
2023-01-18T10:00:33.778Z,18.14
2023-01-18T10:05:41.612Z,18.63
2023-01-18T10:11:12.072Z,18.42
2023-01-18T10:16:15.117Z,18.33
2023-01-18T10:21:34.223Z,18.55
2023-01-18T10:26:38.943Z,18.51
2023-01-18T10:32:05.427Z,18.67
2023-01-18T10:37:30.151Z,18.90
2023-01-18T10:42:47.696Z,19.15
2023-01-18T10:47:52.248Z,19.51
2023-01-18T10:52:54.433Z,19.75
2023-01-18T10:57:57.009Z,19.95
2023-01-18T11:03:01.061Z,20.59
2023-01-18T11:08:32.036Z,20.64
2023-01-18T11:13:39.901Z,20.91
2023-01-18T11:19:18.027Z,20.86
2023-01-18T11:24:28.009Z,20.69
2023-01-18T11:29:36.337Z,20.84
2023-01-18T11:34:41.835Z,20.79
2023-01-18T11:39:45.528Z,20.97
2023-01-18T11:45:02.014Z,20.96
2023-01-18T11:50:22.294Z,20.83
2023-01-18T11:55:35.334Z,21.04
2023-01-18T12:00:54.335Z,21.23
2023-01-18T12:06:08.331Z,20.89
2023-01-18T12:11:22.219Z,21.28
2023-01-18T12:16:41.399Z,20.97
2023-01-18T12:22:18.213Z,20.58
2023-01-18T12:27:45.685Z,20.54
2023-01-18T12:32:49.685Z,20.32
2023-01-18T12:38:23.373Z,20.32
2023-01-18T12:43:41.437Z,20.03
2023-01-18T12:48:57.019Z,19.93
2023-01-18T12:54:37.072Z,20.01
2023-01-18T13:00:36.561Z,20.33
2023-01-18T13:05:52.870Z,20.47
2023-01-18T13:11:02.029Z,20.34
2023-01-18T13:16:20.923Z,20.29
2023-01-18T13:21:54.881Z,20.65
2023-01-18T13:27:18.049Z,20.79
2023-01-18T13:32:36.001Z,20.90
2023-01-18T13:37:50.497Z,21.15
2023-01-18T13:42:53.220Z,21.13
2023-01-18T13:48:01.697Z,21.26
2023-01-18T13:53:16.014Z,21.67
2023-01-18T13:58:53.785Z,21.64
2023-01-18T14:03:56.033Z,21.54
2023-01-18T14:09:07.391Z,21.77
2023-01-18T14:14:12.191Z,22.09
2023-01-18T14:19:20.707Z,22.08
2023-01-18T14:24:33.902Z,21.60
2023-01-18T14:30:01.997Z,21.40
2023-01-18T14:35:23.381Z,21.27
2023-01-18T14:40:28.711Z,20.79
2023-01-18T14:45:35.370Z,20.59
2023-01-18T14:50:41.203Z,20.38
2023-01-18T14:55:43.504Z,20.05
2023-01-18T15:00:49.334Z,19.89
2023-01-18T15:05:59.289Z,19.72
2023-01-18T15:11:05.266Z,19.73
2023-01-18T15:16:07.919Z,19.71
2023-01-18T15:21:28.755Z,19.41
2023-01-18T15:26:54.288Z,19.31
2023-01-18T15:32:03.961Z,19.52
2023-01-18T15:37:10.288Z,19.22
2023-01-18T15:42:16.171Z,18.90
2023-01-18T15:47:29.983Z,18.12
2023-01-18T15:52:47.053Z,17.92
2023-01-18T15:57:58.897Z,17.85
2023-01-18T16:03:03.588Z,17.59
2023-01-18T16:08:20.027Z,17.55
2023-01-18T16:13:40.172Z,17.29
2023-01-18T16:18:45.640Z,17.29
2023-01-18T16:23:50.659Z,17.34
2023-01-18T16:28:53.303Z,17.46
2023-01-18T16:33:55.581Z,17.28
2023-01-18T16:38:57.689Z,17.20
2023-01-18T16:44:04.351Z,17.04
2023-01-18T16:49:12.387Z,16.98
2023-01-18T16:54:14.629Z,17.23
2023-01-18T16:59:23.286Z,16.84
2023-01-18T17:04:27.141Z,16.78
2023-01-18T17:09:32.467Z,16.84
2023-01-18T17:14:37.027Z,16.76
2023-01-18T17:19:41.630Z,16.73
2023-01-18T17:24:44.817Z,16.74
2023-01-18T17:29:47.562Z,16.62
2023-01-18T17:34:49.754Z,16.56
2023-01-18T17:40:10.923Z,16.32
2023-01-18T17:45:17.398Z,16.54
2023-01-18T17:50:25.134Z,16.57
2023-01-18T17:55:34.632Z,16.41
2023-01-18T18:00:37.402Z,16.28
2023-01-18T18:05:39.662Z,16.11
2023-01-18T18:10:44.028Z,16.20
2023-01-18T18:15:49.822Z,16.45
2023-01-18T18:21:02.619Z,16.44
2023-01-18T18:26:05.536Z,16.50
2023-01-18T18:31:14.119Z,16.09
2023-01-18T18:36:16.643Z,16.48
2023-01-18T18:41:19.282Z,16.13
2023-01-18T18:46:21.853Z,15.94
2023-01-18T18:51:25.526Z,15.97
2023-01-18T18:56:28.417Z,15.79
2023-01-18T19:01:30.719Z,15.95
2023-01-18T19:06:33.259Z,16.07
2023-01-18T19:11:37.662Z,16.11
2023-01-18T19:16:42.119Z,16.35
2023-01-18T19:21:44.337Z,16.18
2023-01-18T19:26:46.578Z,16.30
2023-01-18T19:31:48.731Z,16.81
2023-01-18T19:36:51.779Z,17.10
2023-01-18T19:41:53.872Z,17.16
2023-01-18T19:46:57.481Z,16.91
2023-01-18T19:52:00.154Z,17.06
2023-01-18T19:57:03.172Z,16.79
2023-01-18T20:02:06.958Z,16.82
2023-01-18T20:07:09.265Z,16.70
2023-01-18T20:12:14.708Z,16.89
2023-01-18T20:17:17.028Z,16.44
2023-01-18T20:22:19.336Z,16.61
2023-01-18T20:27:21.553Z,16.33
2023-01-18T20:32:23.688Z,16.08
2023-01-18T20:37:25.882Z,16.32
2023-01-18T20:42:27.972Z,16.23
2023-01-18T20:47:30.215Z,16.33
2023-01-18T20:52:32.550Z,15.99
2023-01-18T20:57:34.906Z,16.22
2023-01-18T21:02:37.090Z,16.20
2023-01-18T21:07:40.875Z,16.46
2023-01-18T21:12:43.949Z,16.01
2023-01-18T21:17:46.078Z,15.75
2023-01-18T21:22:48.199Z,15.98
2023-01-18T21:27:50.495Z,15.95
2023-01-18T21:32:52.685Z,15.79
2023-01-18T21:37:54.712Z,15.90
2023-01-18T21:43:15.448Z,15.95
2023-01-18T21:48:18.352Z,15.73
2023-01-18T21:53:39.154Z,15.71
2023-01-18T21:58:53.592Z,15.61
2023-01-18T22:04:14.561Z,15.74
2023-01-18T22:09:16.859Z,15.78
2023-01-18T22:14:19.036Z,15.64
2023-01-18T22:19:22.315Z,15.53
2023-01-18T22:24:24.476Z,15.50
2023-01-18T22:29:26.661Z,15.72
2023-01-18T22:34:28.884Z,15.47
2023-01-18T22:39:31.161Z,15.65
2023-01-18T22:44:33.361Z,15.36
2023-01-18T22:49:35.683Z,15.48
2023-01-18T22:54:37.733Z,15.33
2023-01-18T22:59:39.849Z,15.45
2023-01-18T23:04:41.910Z,15.21
2023-01-18T23:09:44.204Z,15.27
2023-01-18T23:15:04.761Z,15.40
2023-01-18T23:20:15.121Z,15.21
2023-01-18T23:25:17.354Z,15.13
2023-01-18T23:30:19.703Z,15.05
2023-01-18T23:35:21.832Z,14.97
2023-01-18T23:40:42.808Z,15.14
2023-01-18T23:46:03.826Z,15.16
2023-01-18T23:51:27.034Z,15.10
2023-01-18T23:56:30.215Z,15.34
